createdAt,value
2023-04-09T00:01:19.102Z,10.30
2023-04-09T00:03:47.277Z,10.30
2023-04-09T00:06:17.686Z,10.30
2023-04-09T00:08:45.727Z,10.30
2023-04-09T00:11:13.857Z,10.30
2023-04-09T00:13:41.900Z,10.30
2023-04-09T00:16:10.146Z,10.30
2023-04-09T00:18:39.555Z,10.20
2023-04-09T00:21:08.990Z,10.20
2023-04-09T00:23:39.475Z,10.20
2023-04-09T00:26:07.386Z,10.20
2023-04-09T00:28:36.493Z,10.20
2023-04-09T00:31:04.796Z,10.10
2023-04-09T00:33:32.780Z,10.10
2023-04-09T00:36:00.940Z,10.10
2023-04-09T00:38:28.990Z,10.10
2023-04-09T00:40:59.346Z,10.00
2023-04-09T00:43:29.799Z,10.00
2023-04-09T00:45:58.811Z,10.00
2023-04-09T00:48:28.218Z,9.90
2023-04-09T00:50:56.274Z,9.90
2023-04-09T00:53:24.541Z,9.90
2023-04-09T00:55:53.204Z,9.80
2023-04-09T00:58:26.235Z,9.80
2023-04-09T01:00:54.341Z,9.80
2023-04-09T01:03:22.706Z,9.80
2023-04-09T01:05:57.080Z,9.80
2023-04-09T01:08:42.065Z,9.70
2023-04-09T01:11:21.676Z,9.80
2023-04-09T01:14:01.861Z,9.80
2023-04-09T01:16:33.232Z,9.70
2023-04-09T01:19:03.480Z,9.70
2023-04-09T01:21:32.995Z,9.70
2023-04-09T01:24:21.661Z,9.70
2023-04-09T01:27:03.637Z,9.60
2023-04-09T01:29:46.938Z,9.60
2023-04-09T01:32:17.623Z,9.50
2023-04-09T01:34:46.594Z,9.50
2023-04-09T01:37:15.858Z,9.60
2023-04-09T01:39:44.230Z,9.50
2023-04-09T01:42:13.294Z,9.50
2023-04-09T01:44:42.076Z,9.50
2023-04-09T01:47:10.629Z,9.40
2023-04-09T01:49:39.152Z,9.40
2023-04-09T01:52:09.629Z,9.40
2023-04-09T01:54:40.282Z,9.40
2023-04-09T01:57:08.671Z,9.40
2023-04-09T01:59:36.776Z,9.40
2023-04-09T02:02:15.000Z,9.40
2023-04-09T02:04:47.860Z,9.40
2023-04-09T02:07:23.133Z,9.40
2023-04-09T02:09:53.753Z,9.30
2023-04-09T02:12:24.420Z,9.40
2023-04-09T02:14:53.107Z,9.30
2023-04-09T02:17:23.546Z,9.40
2023-04-09T02:19:52.333Z,9.30
2023-04-09T02:22:20.332Z,9.30
2023-04-09T02:24:50.938Z,9.30
2023-04-09T02:27:19.542Z,9.30
2023-04-09T02:29:47.657Z,9.30
2023-04-09T02:32:18.601Z,9.20
2023-04-09T02:34:49.019Z,9.20
2023-04-09T02:37:19.543Z,9.20
2023-04-09T02:39:48.658Z,9.20
2023-04-09T02:42:16.839Z,9.20
2023-04-09T02:44:44.967Z,9.10
2023-04-09T02:47:14.768Z,9.00
2023-04-09T02:49:43.079Z,9.00
2023-04-09T02:52:11.800Z,9.00
2023-04-09T02:54:39.975Z,8.90
2023-04-09T02:57:08.272Z,8.90
2023-04-09T02:59:39.434Z,8.80
2023-04-09T03:02:07.922Z,8.70
2023-04-09T03:04:36.365Z,8.60
2023-04-09T03:07:04.475Z,8.60
2023-04-09T03:09:32.794Z,8.50
2023-04-09T03:12:02.357Z,8.50
2023-04-09T03:14:30.722Z,8.40
2023-04-09T03:17:01.005Z,8.30
2023-04-09T03:19:29.028Z,8.30
2023-04-09T03:21:57.011Z,8.30
2023-04-09T03:24:27.669Z,8.20
2023-04-09T03:27:00.298Z,8.10
2023-04-09T03:29:28.962Z,8.10
2023-04-09T03:31:57.393Z,8.10
2023-04-09T03:34:25.768Z,8.10
2023-04-09T03:36:57.255Z,8.10
2023-04-09T03:39:31.805Z,8.00
2023-04-09T03:42:00.009Z,8.00
2023-04-09T03:44:32.484Z,8.00
2023-04-09T03:47:10.823Z,8.00
2023-04-09T03:49:40.075Z,8.00
2023-04-09T03:52:18.753Z,8.00
2023-04-09T03:54:53.995Z,7.90
2023-04-09T03:57:25.121Z,8.00
2023-04-09T03:59:55.341Z,8.00
2023-04-09T04:02:27.502Z,8.00
2023-04-09T04:05:02.881Z,8.00
2023-04-09T04:07:37.484Z,8.00
2023-04-09T04:10:13.551Z,8.00
2023-04-09T04:12:45.787Z,8.00
2023-04-09T04:15:22.910Z,8.10
2023-04-09T04:17:58.317Z,8.10
2023-04-09T04:20:51.033Z,8.20
2023-04-09T04:23:19.332Z,8.20
2023-04-09T04:25:59.822Z,8.20
2023-04-09T04:28:34.881Z,8.20
2023-04-09T04:31:05.478Z,8.10
2023-04-09T04:33:35.187Z,8.10
2023-04-09T04:36:13.982Z,8.20
2023-04-09T04:38:53.328Z,8.20
2023-04-09T04:41:32.896Z,8.30
2023-04-09T04:44:17.277Z,8.40
2023-04-09T04:46:45.396Z,8.50
2023-04-09T04:49:13.436Z,8.60
2023-04-09T04:51:47.581Z,8.70
2023-04-09T04:54:17.400Z,8.80
2023-04-09T04:56:51.265Z,8.90
2023-04-09T04:59:39.116Z,9.00
2023-04-09T05:02:08.727Z,9.00
2023-04-09T05:04:47.298Z,9.10
2023-04-09T05:07:20.507Z,9.20
2023-04-09T05:09:52.380Z,9.10
2023-04-09T05:12:20.483Z,9.10
2023-04-09T05:14:52.732Z,9.10
2023-04-09T05:17:20.899Z,9.10
2023-04-09T05:19:55.584Z,9.20
2023-04-09T05:22:33.486Z,9.30
2023-04-09T05:25:03.861Z,9.40
2023-04-09T05:27:38.668Z,9.40
2023-04-09T05:30:08.200Z,9.50
2023-04-09T05:32:37.026Z,9.50
2023-04-09T05:35:10.643Z,9.70
2023-04-09T05:37:42.028Z,10.00
2023-04-09T05:40:11.355Z,10.40
2023-04-09T05:42:39.695Z,10.80
2023-04-09T05:45:14.174Z,11.30
2023-04-09T05:47:49.196Z,11.80
2023-04-09T05:50:21.105Z,12.10
2023-04-09T05:52:52.618Z,12.40
2023-04-09T05:55:22.163Z,12.70
2023-04-09T05:57:59.858Z,12.90
2023-04-09T06:00:28.107Z,13.00
2023-04-09T06:02:56.289Z,13.10
2023-04-09T06:05:25.155Z,13.20
2023-04-09T06:07:53.185Z,13.30
2023-04-09T06:10:22.168Z,13.30
2023-04-09T06:12:50.643Z,13.30
2023-04-09T06:15:19.334Z,13.30
2023-04-09T06:17:49.839Z,13.50
2023-04-09T06:20:20.301Z,13.60
2023-04-09T06:22:48.708Z,13.60
2023-04-09T06:25:16.839Z,13.60
2023-04-09T06:27:44.807Z,13.60
2023-04-09T06:30:13.123Z,13.70
2023-04-09T06:32:53.089Z,14.00
2023-04-09T06:35:24.510Z,14.40
2023-04-09T06:37:52.540Z,14.60
2023-04-09T06:40:23.635Z,14.60
2023-04-09T06:42:51.947Z,14.40
2023-04-09T06:45:34.121Z,14.50
2023-04-09T06:48:02.292Z,15.10
2023-04-09T06:50:33.415Z,15.70
2023-04-09T06:53:04.549Z,16.60
2023-04-09T06:55:32.578Z,17.80
2023-04-09T06:58:03.050Z,19.00
2023-04-09T07:00:34.062Z,19.50
2023-04-09T07:03:02.761Z,20.70
2023-04-09T07:05:33.144Z,21.90
2023-04-09T07:08:01.901Z,22.50
2023-04-09T07:10:32.429Z,23.10
2023-04-09T07:13:01.110Z,22.80
2023-04-09T07:15:30.141Z,23.10
2023-04-09T07:17:58.208Z,22.70
2023-04-09T07:20:29.152Z,22.10
2023-04-09T07:22:57.365Z,21.80
2023-04-09T07:25:28.733Z,20.90
2023-04-09T07:27:59.854Z,20.20
2023-04-09T07:30:28.136Z,19.90
2023-04-09T07:46:07.203Z,20.90
2023-04-09T07:48:35.496Z,21.20
2023-04-09T07:51:03.696Z,20.40
2023-04-09T07:53:31.831Z,19.90
2023-04-09T07:55:59.822Z,19.80
2023-04-09T07:58:30.576Z,21.50
2023-04-09T08:00:58.722Z,22.70
2023-04-09T08:03:27.986Z,24.90
2023-04-09T08:05:56.846Z,26.50
2023-04-09T08:08:24.955Z,27.60
2023-04-09T08:10:53.049Z,28.50
2023-04-09T08:13:21.269Z,29.60
2023-04-09T08:15:49.226Z,29.50
2023-04-09T08:18:17.241Z,28.30
2023-04-09T08:20:47.839Z,26.70
2023-04-09T08:23:15.884Z,25.30
2023-04-09T08:25:44.122Z,24.30
2023-04-09T08:28:12.728Z,23.70
2023-04-09T08:30:40.722Z,23.00
2023-04-09T08:33:10.012Z,22.70
2023-04-09T08:35:38.802Z,22.40
2023-04-09T08:38:09.387Z,22.30
2023-04-09T08:40:37.793Z,22.70
2023-04-09T08:43:09.592Z,23.00
2023-04-09T08:45:40.712Z,22.80
2023-04-09T08:48:13.646Z,22.50
2023-04-09T08:50:41.838Z,22.20
2023-04-09T08:53:13.894Z,22.30
2023-04-09T08:55:45.557Z,22.80
2023-04-09T08:58:14.033Z,23.20
2023-04-09T09:00:42.033Z,23.40
2023-04-09T09:03:13.616Z,23.60
2023-04-09T09:05:45.225Z,23.30
2023-04-09T09:08:18.140Z,23.10
2023-04-09T09:10:46.878Z,22.80
2023-04-09T09:13:27.227Z,22.70
2023-04-09T09:15:56.895Z,23.00
2023-04-09T09:18:52.570Z,23.50
2023-04-09T09:21:21.862Z,24.20
2023-04-09T09:23:51.162Z,24.20
2023-04-09T09:26:21.066Z,24.20
2023-04-09T09:28:49.984Z,24.10
2023-04-09T09:31:19.491Z,24.20
2023-04-09T09:33:51.572Z,24.20
2023-04-09T09:36:32.592Z,24.50
2023-04-09T09:39:04.141Z,24.60
2023-04-09T09:41:34.612Z,24.70
2023-04-09T09:44:04.943Z,24.40
2023-04-09T09:46:38.848Z,23.80
2023-04-09T09:49:07.491Z,23.30
2023-04-09T09:51:40.858Z,23.00
2023-04-09T09:54:13.384Z,22.80
2023-04-09T09:56:43.867Z,22.60
2023-04-09T09:59:24.380Z,22.60
2023-04-09T10:01:57.892Z,22.50
2023-04-09T10:04:29.980Z,22.40
2023-04-09T10:06:58.675Z,22.30
2023-04-09T10:09:28.356Z,22.20
2023-04-09T10:12:00.938Z,22.10
2023-04-09T10:14:29.889Z,21.80
2023-04-09T10:16:58.052Z,21.50
2023-04-09T10:19:26.595Z,21.10
2023-04-09T10:21:58.772Z,21.00
2023-04-09T10:24:26.823Z,21.10
2023-04-09T10:26:55.609Z,21.00
2023-04-09T10:29:29.921Z,20.60
2023-04-09T10:32:07.952Z,20.50
2023-04-09T10:34:43.095Z,20.60
2023-04-09T10:37:15.305Z,20.80
2023-04-09T10:39:47.819Z,20.50
2023-04-09T10:42:19.075Z,20.40
2023-04-09T10:44:47.236Z,20.50
2023-04-09T10:47:35.019Z,20.50
2023-04-09T10:50:19.560Z,20.50
2023-04-09T10:52:55.291Z,20.10
2023-04-09T10:55:38.789Z,20.00
2023-04-09T10:58:12.601Z,20.00
2023-04-09T11:00:45.516Z,20.00
2023-04-09T11:03:21.529Z,19.90
2023-04-09T11:06:09.533Z,19.80
2023-04-09T11:08:39.569Z,19.40
2023-04-09T11:11:11.948Z,19.00
2023-04-09T11:13:42.163Z,18.90
2023-04-09T11:16:12.383Z,18.90
2023-04-09T11:18:51.714Z,19.00
2023-04-09T11:21:19.999Z,19.30
2023-04-09T11:23:54.344Z,19.50
2023-04-09T11:26:35.276Z,19.90
2023-04-09T11:29:09.740Z,20.20
2023-04-09T11:31:37.810Z,20.20
2023-04-09T11:34:05.889Z,20.30
2023-04-09T11:36:36.704Z,20.60
2023-04-09T11:39:07.410Z,20.80
2023-04-09T11:41:39.407Z,20.70
2023-04-09T11:44:08.474Z,20.30
2023-04-09T11:46:37.172Z,20.30
2023-04-09T11:49:08.121Z,20.40
2023-04-09T11:51:36.534Z,20.40
2023-04-09T11:54:07.796Z,20.40
2023-04-09T11:56:38.719Z,20.10
2023-04-09T11:59:06.976Z,19.70
2023-04-09T12:01:37.383Z,19.80
2023-04-09T12:04:06.152Z,19.90
2023-04-09T12:06:40.991Z,19.90
2023-04-09T12:09:09.157Z,20.00
2023-04-09T12:11:37.595Z,20.20
2023-04-09T12:14:06.048Z,20.20
2023-04-09T12:16:37.105Z,20.30
2023-04-09T12:19:09.290Z,20.70
2023-04-09T12:21:48.874Z,21.30
2023-04-09T12:24:18.907Z,21.70
2023-04-09T12:26:50.059Z,21.80
2023-04-09T12:29:21.790Z,21.90
2023-04-09T12:31:50.290Z,22.30
2023-04-09T12:34:18.509Z,23.00
2023-04-09T12:36:46.798Z,23.10
2023-04-09T12:39:17.221Z,22.80
2023-04-09T12:41:45.972Z,22.60
2023-04-09T12:44:14.012Z,22.20
2023-04-09T12:46:42.145Z,22.10
2023-04-09T12:49:10.750Z,22.40
2023-04-09T12:51:42.121Z,22.50
2023-04-09T12:54:10.184Z,22.20
2023-04-09T12:56:38.270Z,21.80
2023-04-09T12:59:07.224Z,21.60
2023-04-09T13:01:35.384Z,21.60
2023-04-09T13:04:03.535Z,21.80
2023-04-09T13:06:34.656Z,21.70
2023-04-09T13:09:05.971Z,21.50
2023-04-09T13:11:36.712Z,21.40
2023-04-09T13:14:04.868Z,21.40
2023-04-09T13:16:37.941Z,21.90
2023-04-09T13:19:06.989Z,22.20
2023-04-09T13:21:37.781Z,21.90
2023-04-09T13:24:06.479Z,21.70
2023-04-09T13:26:34.611Z,22.10
2023-04-09T13:29:02.771Z,22.60
2023-04-09T13:31:31.670Z,22.60
2023-04-09T13:33:59.921Z,22.40
2023-04-09T13:36:28.126Z,22.50
2023-04-09T13:38:56.730Z,22.40
2023-04-09T13:41:29.799Z,22.40
2023-04-09T13:43:59.121Z,22.70
2023-04-09T13:46:27.870Z,23.00
2023-04-09T13:48:56.026Z,22.50
2023-04-09T13:51:27.896Z,22.00
2023-04-09T13:53:58.908Z,21.60
2023-04-09T13:56:30.172Z,21.70
2023-04-09T13:58:58.225Z,21.80
2023-04-09T14:01:28.663Z,21.50
2023-04-09T14:04:01.724Z,21.10
2023-04-09T14:06:32.081Z,21.00
2023-04-09T14:09:01.067Z,20.90
2023-04-09T14:11:29.405Z,20.80
2023-04-09T14:13:57.480Z,20.30
2023-04-09T14:16:28.664Z,20.00
2023-04-09T14:18:59.775Z,19.90
2023-04-09T14:21:28.116Z,19.90
2023-04-09T14:23:58.905Z,19.90
2023-04-09T14:26:27.243Z,20.00
2023-04-09T14:28:55.692Z,20.00
2023-04-09T14:31:26.427Z,19.80
2023-04-09T14:33:54.788Z,19.50
2023-04-09T14:36:22.909Z,19.60
2023-04-09T14:38:57.387Z,19.70
2023-04-09T14:41:28.775Z,19.80
2023-04-09T14:43:56.821Z,19.90
2023-04-09T14:46:24.861Z,20.00
2023-04-09T14:48:53.033Z,19.90
2023-04-09T14:51:22.053Z,19.60
2023-04-09T14:53:50.792Z,19.50
2023-04-09T14:56:21.435Z,19.60
2023-04-09T14:58:52.633Z,19.50
2023-04-09T15:01:21.362Z,19.60
2023-04-09T15:03:50.247Z,19.60
2023-04-09T15:06:18.286Z,19.50
2023-04-09T15:08:46.979Z,19.30
2023-04-09T15:11:18.834Z,19.20
2023-04-09T15:13:47.043Z,19.10
2023-04-09T15:16:24.274Z,19.00
2023-04-09T15:18:52.968Z,18.90
2023-04-09T15:21:22.010Z,18.80
2023-04-09T15:23:54.077Z,18.70
2023-04-09T15:26:25.151Z,18.50
2023-04-09T15:28:54.843Z,18.40
2023-04-09T15:31:23.935Z,18.30
2023-04-09T15:33:52.011Z,18.30
2023-04-09T15:36:20.193Z,18.20
2023-04-09T15:38:48.384Z,18.10
2023-04-09T15:41:18.264Z,18.00
2023-04-09T15:43:46.533Z,18.00
2023-04-09T15:46:16.818Z,17.80
2023-04-09T15:48:46.013Z,17.80
2023-04-09T15:51:14.288Z,17.70
2023-04-09T15:53:42.280Z,17.70
2023-04-09T15:56:12.116Z,17.60
2023-04-09T15:58:40.428Z,17.60
2023-04-09T16:01:09.169Z,17.50
2023-04-09T16:03:41.591Z,17.50
2023-04-09T16:06:10.606Z,17.40
2023-04-09T16:08:39.257Z,17.40
2023-04-09T16:11:07.755Z,17.30
2023-04-09T16:13:36.147Z,17.20
2023-04-09T16:16:04.518Z,17.20
2023-04-09T16:18:37.980Z,17.10
2023-04-09T16:21:08.997Z,17.00
2023-04-09T16:23:37.586Z,17.00
2023-04-09T16:26:05.864Z,16.90
2023-04-09T16:28:36.315Z,16.80
2023-04-09T16:31:08.095Z,16.70
2023-04-09T16:33:36.272Z,16.60
2023-04-09T16:36:04.467Z,16.50
2023-04-09T16:38:32.472Z,16.50
2023-04-09T16:41:02.952Z,16.40
2023-04-09T16:43:31.206Z,16.30
2023-04-09T16:45:59.210Z,16.20
2023-04-09T16:48:27.598Z,16.10
2023-04-09T16:50:56.342Z,16.00
2023-04-09T16:53:24.562Z,16.00
2023-04-09T16:55:52.974Z,15.90
2023-04-09T16:58:23.598Z,15.80
2023-04-09T17:00:54.109Z,15.80
2023-04-09T17:03:23.847Z,15.70
2023-04-09T17:05:52.060Z,15.70
2023-04-09T17:08:24.720Z,15.60
2023-04-09T17:11:02.512Z,15.60
2023-04-09T17:13:32.060Z,15.50
2023-04-09T17:16:00.191Z,15.50
2023-04-09T17:18:29.173Z,15.50
2023-04-09T17:20:58.027Z,15.30
2023-04-09T17:23:26.121Z,15.30
2023-04-09T17:25:54.370Z,15.30
2023-04-09T17:28:22.430Z,15.20
2023-04-09T17:30:50.505Z,15.20
2023-04-09T17:33:18.652Z,15.10
2023-04-09T17:35:49.003Z,15.10
2023-04-09T17:38:21.805Z,15.10
2023-04-09T17:40:50.098Z,15.00
2023-04-09T17:43:20.979Z,14.90
2023-04-09T17:45:49.735Z,14.90
2023-04-09T17:48:18.383Z,14.80
2023-04-09T17:50:46.354Z,14.80
2023-04-09T17:53:14.475Z,14.80
2023-04-09T17:55:51.151Z,14.70
2023-04-09T17:58:19.488Z,14.70
2023-04-09T18:00:47.939Z,14.60
2023-04-09T18:03:16.470Z,14.60
2023-04-09T18:05:44.751Z,14.50
2023-04-09T18:08:12.898Z,14.40
2023-04-09T18:10:41.052Z,14.40
2023-04-09T18:13:11.616Z,14.30
2023-04-09T18:15:39.629Z,14.20
2023-04-09T18:18:08.061Z,14.10
2023-04-09T18:20:40.210Z,14.00
2023-04-09T18:23:08.251Z,13.90
2023-04-09T18:25:38.062Z,13.90
2023-04-09T18:28:08.398Z,13.80
2023-04-09T18:30:39.331Z,13.80
2023-04-09T18:33:08.537Z,13.80
2023-04-09T18:35:36.647Z,13.70
2023-04-09T18:38:04.760Z,13.70
2023-04-09T18:40:32.812Z,13.60
2023-04-09T18:43:01.431Z,13.50
2023-04-09T18:45:29.635Z,13.50
2023-04-09T18:47:57.662Z,13.50
2023-04-09T18:50:25.774Z,13.40
2023-04-09T18:52:56.392Z,13.40
2023-04-09T18:55:24.478Z,13.40
2023-04-09T18:57:53.049Z,13.30
2023-04-09T19:00:21.090Z,13.20
2023-04-09T19:02:50.418Z,13.20
2023-04-09T19:05:19.168Z,13.20
2023-04-09T19:07:47.167Z,13.20
2023-04-09T19:10:15.388Z,13.20
2023-04-09T19:12:50.180Z,13.20
2023-04-09T19:15:20.977Z,13.10
2023-04-09T19:17:49.313Z,13.20
2023-04-09T19:20:17.467Z,13.00
2023-04-09T19:22:53.843Z,13.10
2023-04-09T19:25:27.672Z,13.10
2023-04-09T19:27:58.057Z,13.10
2023-04-09T19:30:26.289Z,13.00
2023-04-09T19:32:55.430Z,13.00
2023-04-09T19:35:23.603Z,13.00
2023-04-09T19:37:51.850Z,12.90
2023-04-09T19:40:20.168Z,12.90
2023-04-09T19:42:48.215Z,12.90
2023-04-09T19:45:16.409Z,12.80
2023-04-09T19:47:46.191Z,12.90
2023-04-09T19:50:15.129Z,12.80
2023-04-09T19:52:45.377Z,12.70
2023-04-09T19:55:14.342Z,12.70
2023-04-09T19:57:44.084Z,12.70
2023-04-09T20:00:17.764Z,12.70
2023-04-09T20:02:46.191Z,12.60
2023-04-09T20:05:15.890Z,12.60
2023-04-09T20:07:44.775Z,12.50
2023-04-09T20:10:13.419Z,12.50
2023-04-09T20:12:42.135Z,12.40
2023-04-09T20:15:10.336Z,12.40
2023-04-09T20:17:39.003Z,12.40
2023-04-09T20:20:07.233Z,12.40
2023-04-09T20:22:35.332Z,12.30
2023-04-09T20:25:03.750Z,12.30
2023-04-09T20:27:31.881Z,12.30
2023-04-09T20:30:02.151Z,12.20
2023-04-09T20:32:34.126Z,12.20
2023-04-09T20:35:02.405Z,12.10
2023-04-09T20:37:30.372Z,12.10
2023-04-09T20:40:04.312Z,12.10
2023-04-09T20:42:32.615Z,12.10
2023-04-09T20:45:01.933Z,12.00
2023-04-09T20:47:30.395Z,11.90
2023-04-09T20:50:01.490Z,11.90
2023-04-09T20:52:29.784Z,11.90
2023-04-09T20:54:57.985Z,11.80
2023-04-09T20:57:26.326Z,11.80
2023-04-09T20:59:55.384Z,11.80
2023-04-09T21:02:24.416Z,11.70
2023-04-09T21:04:52.649Z,11.50
2023-04-09T21:07:20.788Z,11.50
2023-04-09T21:09:49.988Z,11.50
2023-04-09T21:12:20.319Z,11.50
2023-04-09T21:14:49.425Z,11.50
2023-04-09T21:17:19.909Z,11.40
2023-04-09T21:19:49.798Z,11.40
2023-04-09T21:22:20.492Z,11.30
2023-04-09T21:24:51.924Z,11.40
2023-04-09T21:27:20.660Z,11.30
2023-04-09T21:29:48.679Z,11.20
2023-04-09T21:32:17.989Z,11.20
2023-04-09T21:34:46.248Z,11.10
2023-04-09T21:37:14.373Z,11.10
2023-04-09T21:39:43.252Z,11.10
2023-04-09T21:42:11.483Z,11.10
2023-04-09T21:44:39.529Z,11.10
2023-04-09T21:47:09.563Z,11.00
2023-04-09T21:49:40.764Z,11.00
2023-04-09T21:52:15.241Z,10.90
2023-04-09T21:54:43.850Z,10.90
2023-04-09T21:57:15.236Z,10.80
2023-04-09T21:59:45.831Z,10.90
2023-04-09T22:02:14.025Z,10.80
2023-04-09T22:04:43.356Z,10.70
2023-04-09T22:07:12.436Z,10.70
2023-04-09T22:09:40.401Z,10.70
2023-04-09T22:12:08.552Z,10.60
2023-04-09T22:14:38.555Z,10.50
2023-04-09T22:17:09.184Z,10.50
2023-04-09T22:19:37.235Z,10.40
2023-04-09T22:22:05.949Z,10.40
2023-04-09T22:24:36.433Z,10.40
2023-04-09T22:27:04.514Z,10.40
2023-04-09T22:29:33.345Z,10.30
2023-04-09T22:32:02.885Z,10.30
2023-04-09T22:34:31.040Z,10.20
2023-04-09T22:36:59.454Z,10.10
2023-04-09T22:39:32.662Z,10.10
2023-04-09T22:42:03.518Z,10.00
2023-04-09T22:44:34.022Z,10.00
2023-04-09T22:47:04.419Z,9.90
2023-04-09T22:49:32.785Z,9.90
2023-04-09T22:52:01.452Z,9.90
2023-04-09T22:54:30.575Z,9.90
2023-04-09T22:56:58.745Z,9.90
2023-04-09T22:59:37.230Z,9.90
2023-04-09T23:02:08.729Z,9.90
2023-04-09T23:04:39.133Z,9.90
2023-04-09T23:07:08.368Z,9.90
2023-04-09T23:09:36.334Z,9.90
2023-04-09T23:12:06.856Z,9.90
2023-04-09T23:14:37.595Z,9.80
2023-04-09T23:17:08.027Z,9.80
2023-04-09T23:19:36.093Z,9.80
2023-04-09T23:22:04.084Z,9.70
2023-04-09T23:24:32.216Z,9.70
2023-04-09T23:27:03.154Z,9.70
2023-04-09T23:29:31.681Z,9.70
2023-04-09T23:31:59.842Z,9.70
2023-04-09T23:34:27.823Z,9.60
2023-04-09T23:36:56.347Z,9.60
2023-04-09T23:39:24.463Z,9.50
2023-04-09T23:41:53.506Z,9.50
2023-04-09T23:44:21.620Z,9.50
2023-04-09T23:46:50.594Z,9.50
2023-04-09T23:49:20.941Z,9.50
2023-04-09T23:51:51.091Z,9.50
2023-04-09T23:54:19.559Z,9.50
2023-04-09T23:56:51.455Z,9.40
2023-04-09T23:59:22.032Z,9.40
